sensor_id;sensor_type;location;lat;lon;timestamp;P1;durP1;ratioP1;P2;durP2;ratioP2
5616;SDS011;2830;50.656;7.568;2024-01-11T00:02:06;17.67;;;11.63;;
5616;SDS011;2830;50.656;7.568;2024-01-11T00:04:33;19.80;;;11.52;;
5616;SDS011;2830;50.656;7.568;2024-01-11T00:06:59;23.67;;;13.43;;
5616;SDS011;2830;50.656;7.568;2024-01-11T00:09:26;17.80;;;11.77;;
5616;SDS011;2830;50.656;7.568;2024-01-11T00:11:53;19.05;;;11.25;;
5616;SDS011;2830;50.656;7.568;2024-01-11T00:14:20;22.02;;;12.00;;
5616;SDS011;2830;50.656;7.568;2024-01-11T00:16:47;21.05;;;10.80;;
5616;SDS011;2830;50.656;7.568;2024-01-11T00:19:14;21.48;;;10.82;;
5616;SDS011;2830;50.656;7.568;2024-01-11T00:21:41;20.05;;;12.10;;
5616;SDS011;2830;50.656;7.568;2024-01-11T00:24:08;21.83;;;12.38;;
5616;SDS011;2830;50.656;7.568;2024-01-11T00:26:35;22.02;;;11.48;;
5616;SDS011;2830;50.656;7.568;2024-01-11T00:29:03;18.60;;;12.30;;
5616;SDS011;2830;50.656;7.568;2024-01-11T00:31:31;17.10;;;11.38;;
5616;SDS011;2830;50.656;7.568;2024-01-11T00:33:58;21.88;;;11.27;;
5616;SDS011;2830;50.656;7.568;2024-01-11T00:36:25;21.83;;;12.48;;
5616;SDS011;2830;50.656;7.568;2024-01-11T00:38:52;19.17;;;12.18;;
5616;SDS011;2830;50.656;7.568;2024-01-11T00:41:19;21.30;;;12.82;;
5616;SDS011;2830;50.656;7.568;2024-01-11T00:43:46;20.50;;;12.68;;
5616;SDS011;2830;50.656;7.568;2024-01-11T00:46:13;17.48;;;11.50;;
5616;SDS011;2830;50.656;7.568;2024-01-11T00:48:40;19.88;;;11.63;;
5616;SDS011;2830;50.656;7.568;2024-01-11T00:51:07;14.52;;;10.13;;
5616;SDS011;2830;50.656;7.568;2024-01-11T00:53:34;19.90;;;13.00;;
5616;SDS011;2830;50.656;7.568;2024-01-11T00:56:01;18.65;;;10.98;;
5616;SDS011;2830;50.656;7.568;2024-01-11T00:58:28;22.15;;;12.93;;
5616;SDS011;2830;50.656;7.568;2024-01-11T01:00:56;21.73;;;10.98;;
5616;SDS011;2830;50.656;7.568;2024-01-11T01:03:23;22.98;;;12.43;;
5616;SDS011;2830;50.656;7.568;2024-01-11T01:05:50;19.27;;;11.05;;
5616;SDS011;2830;50.656;7.568;2024-01-11T01:08:16;20.00;;;11.57;;
5616;SDS011;2830;50.656;7.568;2024-01-11T01:10:43;21.90;;;11.75;;
5616;SDS011;2830;50.656;7.568;2024-01-11T01:13:10;20.60;;;11.45;;
5616;SDS011;2830;50.656;7.568;2024-01-11T01:15:37;23.90;;;12.50;;
5616;SDS011;2830;50.656;7.568;2024-01-11T01:18:04;19.85;;;12.70;;
5616;SDS011;2830;50.656;7.568;2024-01-11T01:20:31;20.42;;;11.63;;
5616;SDS011;2830;50.656;7.568;2024-01-11T01:22:58;20.67;;;11.23;;
5616;SDS011;2830;50.656;7.568;2024-01-11T01:25:26;18.67;;;11.35;;
5616;SDS011;2830;50.656;7.568;2024-01-11T01:27:53;20.20;;;11.55;;
5616;SDS011;2830;50.656;7.568;2024-01-11T01:30:20;17.67;;;11.10;;
5616;SDS011;2830;50.656;7.568;2024-01-11T01:32:47;20.77;;;12.00;;
5616;SDS011;2830;50.656;7.568;2024-01-11T01:35:14;20.55;;;11.02;;
5616;SDS011;2830;50.656;7.568;2024-01-11T01:37:41;17.50;;;10.75;;
5616;SDS011;2830;50.656;7.568;2024-01-11T01:40:09;19.58;;;11.27;;
5616;SDS011;2830;50.656;7.568;2024-01-11T01:42:36;17.65;;;11.82;;
5616;SDS011;2830;50.656;7.568;2024-01-11T01:45:09;24.65;;;11.77;;
5616;SDS011;2830;50.656;7.568;2024-01-11T01:47:39;19.33;;;11.80;;
5616;SDS011;2830;50.656;7.568;2024-01-11T01:50:07;17.88;;;11.30;;
5616;SDS011;2830;50.656;7.568;2024-01-11T01:52:37;15.23;;;9.90;;
5616;SDS011;2830;50.656;7.568;2024-01-11T01:55:07;19.38;;;10.70;;
5616;SDS011;2830;50.656;7.568;2024-01-11T01:57:36;19.73;;;12.50;;
5616;SDS011;2830;50.656;7.568;2024-01-11T02:00:06;17.23;;;10.52;;
5616;SDS011;2830;50.656;7.568;2024-01-11T02:02:34;18.63;;;11.30;;
5616;SDS011;2830;50.656;7.568;2024-01-11T02:05:01;18.55;;;12.05;;
5616;SDS011;2830;50.656;7.568;2024-01-11T02:07:28;20.73;;;11.60;;
5616;SDS011;2830;50.656;7.568;2024-01-11T02:09:55;21.98;;;10.90;;
5616;SDS011;2830;50.656;7.568;2024-01-11T02:12:23;25.02;;;12.13;;
5616;SDS011;2830;50.656;7.568;2024-01-11T02:14:53;19.15;;;11.48;;
5616;SDS011;2830;50.656;7.568;2024-01-11T02:17:20;20.10;;;10.82;;
5616;SDS011;2830;50.656;7.568;2024-01-11T02:19:47;26.38;;;12.82;;
5616;SDS011;2830;50.656;7.568;2024-01-11T02:22:15;24.67;;;11.15;;
5616;SDS011;2830;50.656;7.568;2024-01-11T02:24:55;21.80;;;13.05;;
5616;SDS011;2830;50.656;7.568;2024-01-11T02:27:24;22.85;;;11.40;;
5616;SDS011;2830;50.656;7.568;2024-01-11T02:29:50;20.75;;;11.65;;
5616;SDS011;2830;50.656;7.568;2024-01-11T02:32:17;22.60;;;11.45;;
5616;SDS011;2830;50.656;7.568;2024-01-11T02:34:44;28.80;;;14.27;;
5616;SDS011;2830;50.656;7.568;2024-01-11T02:37:11;19.70;;;10.75;;
5616;SDS011;2830;50.656;7.568;2024-01-11T02:39:39;21.65;;;10.93;;
5616;SDS011;2830;50.656;7.568;2024-01-11T02:42:06;21.70;;;13.23;;
5616;SDS011;2830;50.656;7.568;2024-01-11T02:44:33;18.15;;;9.98;;
5616;SDS011;2830;50.656;7.568;2024-01-11T02:47:00;23.77;;;12.18;;
5616;SDS011;2830;50.656;7.568;2024-01-11T02:49:27;26.77;;;13.00;;
5616;SDS011;2830;50.656;7.568;2024-01-11T02:51:54;23.75;;;13.65;;
5616;SDS011;2830;50.656;7.568;2024-01-11T02:54:21;18.05;;;11.27;;
5616;SDS011;2830;50.656;7.568;2024-01-11T02:56:48;24.67;;;12.73;;
5616;SDS011;2830;50.656;7.568;2024-01-11T02:59:15;18.40;;;10.95;;
5616;SDS011;2830;50.656;7.568;2024-01-11T03:01:42;16.90;;;11.35;;
5616;SDS011;2830;50.656;7.568;2024-01-11T03:04:08;21.88;;;11.43;;
5616;SDS011;2830;50.656;7.568;2024-01-11T03:06:36;22.38;;;12.10;;
5616;SDS011;2830;50.656;7.568;2024-01-11T03:09:03;24.27;;;12.23;;
5616;SDS011;2830;50.656;7.568;2024-01-11T03:11:30;19.00;;;10.40;;
5616;SDS011;2830;50.656;7.568;2024-01-11T03:13:57;19.30;;;11.50;;
5616;SDS011;2830;50.656;7.568;2024-01-11T03:16:23;22.08;;;11.38;;
5616;SDS011;2830;50.656;7.568;2024-01-11T03:18:50;17.20;;;10.73;;
5616;SDS011;2830;50.656;7.568;2024-01-11T03:21:17;24.70;;;12.43;;
5616;SDS011;2830;50.656;7.568;2024-01-11T03:23:44;19.38;;;11.00;;
5616;SDS011;2830;50.656;7.568;2024-01-11T03:26:12;16.65;;;10.63;;
5616;SDS011;2830;50.656;7.568;2024-01-11T03:28:40;19.63;;;11.55;;
5616;SDS011;2830;50.656;7.568;2024-01-11T03:31:08;17.00;;;10.85;;
5616;SDS011;2830;50.656;7.568;2024-01-11T03:33:35;20.45;;;12.70;;
5616;SDS011;2830;50.656;7.568;2024-01-11T03:36:07;23.33;;;12.85;;
5616;SDS011;2830;50.656;7.568;2024-01-11T03:38:35;22.25;;;11.52;;
5616;SDS011;2830;50.656;7.568;2024-01-11T03:41:02;20.95;;;12.20;;
5616;SDS011;2830;50.656;7.568;2024-01-11T03:43:34;29.02;;;13.00;;
5616;SDS011;2830;50.656;7.568;2024-01-11T03:46:02;19.80;;;11.07;;
5616;SDS011;2830;50.656;7.568;2024-01-11T03:48:30;17.60;;;11.27;;
5616;SDS011;2830;50.656;7.568;2024-01-11T03:50:58;14.65;;;10.07;;
5616;SDS011;2830;50.656;7.568;2024-01-11T03:53:25;22.20;;;12.52;;
5616;SDS011;2830;50.656;7.568;2024-01-11T03:55:52;18.50;;;11.60;;
5616;SDS011;2830;50.656;7.568;2024-01-11T03:58:19;20.20;;;11.68;;
5616;SDS011;2830;50.656;7.568;2024-01-11T04:00:46;18.15;;;10.63;;
5616;SDS011;2830;50.656;7.568;2024-01-11T04:03:13;24.67;;;13.20;;
5616;SDS011;2830;50.656;7.568;2024-01-11T04:05:40;20.42;;;11.43;;
5616;SDS011;2830;50.656;7.568;2024-01-11T04:08:07;28.42;;;13.35;;
5616;SDS011;2830;50.656;7.568;2024-01-11T04:10:34;27.67;;;12.65;;
5616;SDS011;2830;50.656;7.568;2024-01-11T04:13:01;23.48;;;12.18;;
5616;SDS011;2830;50.656;7.568;2024-01-11T04:15:28;19.40;;;12.18;;
5616;SDS011;2830;50.656;7.568;2024-01-11T04:17:55;24.50;;;11.88;;
5616;SDS011;2830;50.656;7.568;2024-01-11T04:20:22;23.33;;;12.57;;
5616;SDS011;2830;50.656;7.568;2024-01-11T04:22:50;18.60;;;10.73;;
5616;SDS011;2830;50.656;7.568;2024-01-11T04:25:17;22.08;;;12.45;;
5616;SDS011;2830;50.656;7.568;2024-01-11T04:27:44;21.02;;;12.93;;
5616;SDS011;2830;50.656;7.568;2024-01-11T04:30:11;23.25;;;12.43;;
5616;SDS011;2830;50.656;7.568;2024-01-11T04:32:38;23.60;;;12.70;;
5616;SDS011;2830;50.656;7.568;2024-01-11T04:35:05;19.65;;;11.60;;
5616;SDS011;2830;50.656;7.568;2024-01-11T04:37:33;21.08;;;11.93;;
5616;SDS011;2830;50.656;7.568;2024-01-11T04:40:01;19.45;;;11.43;;
5616;SDS011;2830;50.656;7.568;2024-01-11T04:42:30;18.42;;;12.20;;
5616;SDS011;2830;50.656;7.568;2024-01-11T04:44:56;18.20;;;11.32;;
5616;SDS011;2830;50.656;7.568;2024-01-11T04:47:23;18.92;;;11.32;;
5616;SDS011;2830;50.656;7.568;2024-01-11T04:49:50;23.88;;;12.25;;
5616;SDS011;2830;50.656;7.568;2024-01-11T04:52:17;23.65;;;13.80;;
5616;SDS011;2830;50.656;7.568;2024-01-11T04:54:44;19.92;;;9.95;;
5616;SDS011;2830;50.656;7.568;2024-01-11T04:57:11;18.75;;;10.77;;
5616;SDS011;2830;50.656;7.568;2024-01-11T04:59:38;24.85;;;12.73;;
5616;SDS011;2830;50.656;7.568;2024-01-11T05:02:05;17.35;;;10.25;;
5616;SDS011;2830;50.656;7.568;2024-01-11T05:04:32;16.55;;;10.55;;
5616;SDS011;2830;50.656;7.568;2024-01-11T05:06:59;18.67;;;11.93;;
5616;SDS011;2830;50.656;7.568;2024-01-11T05:09:25;28.02;;;11.85;;
5616;SDS011;2830;50.656;7.568;2024-01-11T05:11:52;17.95;;;10.93;;
5616;SDS011;2830;50.656;7.568;2024-01-11T05:14:19;23.10;;;12.93;;
5616;SDS011;2830;50.656;7.568;2024-01-11T05:16:46;20.73;;;12.05;;
5616;SDS011;2830;50.656;7.568;2024-01-11T05:19:13;17.63;;;10.65;;
5616;SDS011;2830;50.656;7.568;2024-01-11T05:21:40;20.75;;;10.65;;
5616;SDS011;2830;50.656;7.568;2024-01-11T05:24:07;20.58;;;12.77;;
5616;SDS011;2830;50.656;7.568;2024-01-11T05:26:37;17.00;;;10.60;;
5616;SDS011;2830;50.656;7.568;2024-01-11T05:29:04;23.40;;;11.80;;
5616;SDS011;2830;50.656;7.568;2024-01-11T05:31:31;20.95;;;11.18;;
5616;SDS011;2830;50.656;7.568;2024-01-11T05:33:58;20.23;;;11.10;;
5616;SDS011;2830;50.656;7.568;2024-01-11T05:36:25;17.08;;;10.70;;
5616;SDS011;2830;50.656;7.568;2024-01-11T05:38:52;19.67;;;11.25;;
5616;SDS011;2830;50.656;7.568;2024-01-11T05:41:19;18.52;;;12.43;;
5616;SDS011;2830;50.656;7.568;2024-01-11T05:43:46;19.40;;;11.88;;
5616;SDS011;2830;50.656;7.568;2024-01-11T05:46:13;19.95;;;12.80;;
5616;SDS011;2830;50.656;7.568;2024-01-11T05:48:40;18.48;;;10.82;;
5616;SDS011;2830;50.656;7.568;2024-01-11T05:51:08;20.33;;;11.50;;
5616;SDS011;2830;50.656;7.568;2024-01-11T05:53:35;22.20;;;11.48;;
5616;SDS011;2830;50.656;7.568;2024-01-11T05:56:07;24.80;;;13.32;;
5616;SDS011;2830;50.656;7.568;2024-01-11T05:58:35;29.42;;;14.90;;
5616;SDS011;2830;50.656;7.568;2024-01-11T06:01:04;24.95;;;15.88;;
5616;SDS011;2830;50.656;7.568;2024-01-11T06:03:31;21.38;;;12.18;;
5616;SDS011;2830;50.656;7.568;2024-01-11T06:06:00;21.40;;;12.05;;
5616;SDS011;2830;50.656;7.568;2024-01-11T06:08:30;18.98;;;11.13;;
5616;SDS011;2830;50.656;7.568;2024-01-11T06:10:58;21.70;;;12.30;;
5616;SDS011;2830;50.656;7.568;2024-01-11T06:13:25;21.83;;;12.07;;
5616;SDS011;2830;50.656;7.568;2024-01-11T06:15:52;20.90;;;12.27;;
5616;SDS011;2830;50.656;7.568;2024-01-11T06:18:19;21.85;;;13.32;;
5616;SDS011;2830;50.656;7.568;2024-01-11T06:20:46;23.92;;;12.35;;
5616;SDS011;2830;50.656;7.568;2024-01-11T06:23:13;24.98;;;12.68;;
5616;SDS011;2830;50.656;7.568;2024-01-11T06:25:41;22.10;;;12.13;;
5616;SDS011;2830;50.656;7.568;2024-01-11T06:28:08;22.83;;;12.68;;
5616;SDS011;2830;50.656;7.568;2024-01-11T06:30:36;20.38;;;11.02;;
5616;SDS011;2830;50.656;7.568;2024-01-11T06:33:03;17.60;;;11.10;;
5616;SDS011;2830;50.656;7.568;2024-01-11T06:35:30;21.08;;;11.13;;
5616;SDS011;2830;50.656;7.568;2024-01-11T06:37:57;19.20;;;12.38;;
5616;SDS011;2830;50.656;7.568;2024-01-11T06:40:24;21.38;;;12.45;;
5616;SDS011;2830;50.656;7.568;2024-01-11T06:42:51;24.52;;;13.55;;
5616;SDS011;2830;50.656;7.568;2024-01-11T06:45:18;20.77;;;11.48;;
5616;SDS011;2830;50.656;7.568;2024-01-11T06:47:45;23.73;;;13.13;;
5616;SDS011;2830;50.656;7.568;2024-01-11T06:50:13;20.13;;;11.48;;
5616;SDS011;2830;50.656;7.568;2024-01-11T06:52:40;25.50;;;11.55;;
5616;SDS011;2830;50.656;7.568;2024-01-11T06:55:07;23.70;;;12.70;;
5616;SDS011;2830;50.656;7.568;2024-01-11T06:57:34;22.17;;;12.30;;
5616;SDS011;2830;50.656;7.568;2024-01-11T07:00:02;16.63;;;10.93;;
5616;SDS011;2830;50.656;7.568;2024-01-11T07:02:29;19.73;;;11.88;;
5616;SDS011;2830;50.656;7.568;2024-01-11T07:04:57;26.55;;;15.73;;
5616;SDS011;2830;50.656;7.568;2024-01-11T07:07:24;19.00;;;11.55;;
5616;SDS011;2830;50.656;7.568;2024-01-11T07:09:51;20.23;;;13.10;;
5616;SDS011;2830;50.656;7.568;2024-01-11T07:12:21;21.27;;;11.48;;
5616;SDS011;2830;50.656;7.568;2024-01-11T07:14:48;19.02;;;12.00;;
5616;SDS011;2830;50.656;7.568;2024-01-11T07:17:15;19.83;;;11.35;;
5616;SDS011;2830;50.656;7.568;2024-01-11T07:19:42;22.85;;;12.40;;
5616;SDS011;2830;50.656;7.568;2024-01-11T07:22:09;21.52;;;10.95;;
5616;SDS011;2830;50.656;7.568;2024-01-11T07:24:36;25.23;;;11.90;;
5616;SDS011;2830;50.656;7.568;2024-01-11T07:27:04;20.10;;;11.20;;
5616;SDS011;2830;50.656;7.568;2024-01-11T07:29:35;20.60;;;12.70;;
5616;SDS011;2830;50.656;7.568;2024-01-11T07:32:02;23.50;;;11.70;;
5616;SDS011;2830;50.656;7.568;2024-01-11T07:34:32;22.02;;;12.40;;
5616;SDS011;2830;50.656;7.568;2024-01-11T07:36:59;21.77;;;12.50;;
5616;SDS011;2830;50.656;7.568;2024-01-11T07:39:26;21.77;;;12.85;;
5616;SDS011;2830;50.656;7.568;2024-01-11T07:41:53;24.88;;;13.00;;
5616;SDS011;2830;50.656;7.568;2024-01-11T07:44:20;21.90;;;13.00;;
5616;SDS011;2830;50.656;7.568;2024-01-11T07:46:47;25.20;;;13.43;;
5616;SDS011;2830;50.656;7.568;2024-01-11T07:49:20;24.35;;;13.43;;
5616;SDS011;2830;50.656;7.568;2024-01-11T07:51:48;22.15;;;11.82;;
5616;SDS011;2830;50.656;7.568;2024-01-11T07:54:15;26.50;;;12.93;;
5616;SDS011;2830;50.656;7.568;2024-01-11T07:56:42;27.05;;;13.98;;
5616;SDS011;2830;50.656;7.568;2024-01-11T07:59:09;20.65;;;11.85;;
5616;SDS011;2830;50.656;7.568;2024-01-11T08:01:41;23.23;;;12.02;;
5616;SDS011;2830;50.656;7.568;2024-01-11T08:04:08;27.52;;;14.70;;
5616;SDS011;2830;50.656;7.568;2024-01-11T08:06:35;25.30;;;13.80;;
5616;SDS011;2830;50.656;7.568;2024-01-11T08:09:02;21.42;;;11.80;;
5616;SDS011;2830;50.656;7.568;2024-01-11T08:11:31;27.60;;;13.55;;
5616;SDS011;2830;50.656;7.568;2024-01-11T08:14:02;25.25;;;14.10;;
5616;SDS011;2830;50.656;7.568;2024-01-11T08:16:35;27.02;;;15.20;;
5616;SDS011;2830;50.656;7.568;2024-01-11T08:19:02;25.13;;;14.85;;
5616;SDS011;2830;50.656;7.568;2024-01-11T08:21:29;26.75;;;13.55;;
5616;SDS011;2830;50.656;7.568;2024-01-11T08:23:57;26.27;;;14.85;;
5616;SDS011;2830;50.656;7.568;2024-01-11T08:26:28;25.02;;;14.00;;
5616;SDS011;2830;50.656;7.568;2024-01-11T08:28:56;24.90;;;16.02;;
5616;SDS011;2830;50.656;7.568;2024-01-11T08:31:23;25.52;;;13.95;;
5616;SDS011;2830;50.656;7.568;2024-01-11T08:33:51;24.38;;;14.40;;
5616;SDS011;2830;50.656;7.568;2024-01-11T08:36:18;27.25;;;14.13;;
5616;SDS011;2830;50.656;7.568;2024-01-11T08:38:45;22.83;;;14.15;;
5616;SDS011;2830;50.656;7.568;2024-01-11T08:41:12;28.70;;;15.68;;
5616;SDS011;2830;50.656;7.568;2024-01-11T08:43:39;49.15;;;26.45;;
5616;SDS011;2830;50.656;7.568;2024-01-11T08:46:06;47.67;;;23.90;;
5616;SDS011;2830;50.656;7.568;2024-01-11T08:48:36;64.43;;;30.67;;
5616;SDS011;2830;50.656;7.568;2024-01-11T08:51:03;43.47;;;24.83;;
5616;SDS011;2830;50.656;7.568;2024-01-11T08:53:30;56.50;;;27.60;;
5616;SDS011;2830;50.656;7.568;2024-01-11T08:55:57;41.78;;;24.77;;
5616;SDS011;2830;50.656;7.568;2024-01-11T08:58:24;29.50;;;16.00;;
5616;SDS011;2830;50.656;7.568;2024-01-11T09:00:51;23.35;;;14.52;;
5616;SDS011;2830;50.656;7.568;2024-01-11T09:03:18;36.50;;;16.65;;
5616;SDS011;2830;50.656;7.568;2024-01-11T09:05:45;31.17;;;17.35;;
5616;SDS011;2830;50.656;7.568;2024-01-11T09:08:12;32.17;;;18.27;;
5616;SDS011;2830;50.656;7.568;2024-01-11T09:10:39;28.98;;;16.10;;
5616;SDS011;2830;50.656;7.568;2024-01-11T09:13:08;33.72;;;19.23;;
5616;SDS011;2830;50.656;7.568;2024-01-11T09:15:37;26.55;;;14.30;;
5616;SDS011;2830;50.656;7.568;2024-01-11T09:18:04;28.35;;;15.18;;
5616;SDS011;2830;50.656;7.568;2024-01-11T09:20:31;24.08;;;15.48;;
5616;SDS011;2830;50.656;7.568;2024-01-11T09:22:59;28.35;;;15.50;;
5616;SDS011;2830;50.656;7.568;2024-01-11T09:25:30;29.25;;;15.23;;
5616;SDS011;2830;50.656;7.568;2024-01-11T09:27:57;24.77;;;13.90;;
5616;SDS011;2830;50.656;7.568;2024-01-11T09:30:24;29.67;;;15.70;;
5616;SDS011;2830;50.656;7.568;2024-01-11T09:32:52;26.58;;;14.32;;
5616;SDS011;2830;50.656;7.568;2024-01-11T09:35:19;27.17;;;16.08;;
5616;SDS011;2830;50.656;7.568;2024-01-11T09:37:46;28.35;;;16.35;;
5616;SDS011;2830;50.656;7.568;2024-01-11T09:40:14;29.40;;;15.05;;
5616;SDS011;2830;50.656;7.568;2024-01-11T09:42:42;32.60;;;16.30;;
5616;SDS011;2830;50.656;7.568;2024-01-11T09:45:10;26.83;;;16.63;;
5616;SDS011;2830;50.656;7.568;2024-01-11T09:47:39;28.73;;;15.43;;
5616;SDS011;2830;50.656;7.568;2024-01-11T09:50:07;25.73;;;14.60;;
5616;SDS011;2830;50.656;7.568;2024-01-11T09:52:35;28.75;;;14.00;;
5616;SDS011;2830;50.656;7.568;2024-01-11T09:55:04;26.98;;;14.80;;
5616;SDS011;2830;50.656;7.568;2024-01-11T09:57:32;31.63;;;14.90;;
5616;SDS011;2830;50.656;7.568;2024-01-11T10:00:02;30.00;;;17.98;;
5616;SDS011;2830;50.656;7.568;2024-01-11T10:02:34;28.92;;;15.50;;
5616;SDS011;2830;50.656;7.568;2024-01-11T10:05:01;25.90;;;15.45;;
5616;SDS011;2830;50.656;7.568;2024-01-11T10:07:28;24.63;;;13.45;;
5616;SDS011;2830;50.656;7.568;2024-01-11T10:09:57;26.40;;;14.77;;
5616;SDS011;2830;50.656;7.568;2024-01-11T10:12:25;25.95;;;14.50;;
5616;SDS011;2830;50.656;7.568;2024-01-11T10:14:52;28.25;;;14.95;;
5616;SDS011;2830;50.656;7.568;2024-01-11T10:17:19;24.25;;;14.23;;
5616;SDS011;2830;50.656;7.568;2024-01-11T10:19:52;29.63;;;15.80;;
5616;SDS011;2830;50.656;7.568;2024-01-11T10:22:20;31.15;;;15.98;;
5616;SDS011;2830;50.656;7.568;2024-01-11T10:24:50;24.70;;;14.53;;
5616;SDS011;2830;50.656;7.568;2024-01-11T10:27:17;24.27;;;14.00;;
5616;SDS011;2830;50.656;7.568;2024-01-11T10:29:44;27.90;;;15.53;;
5616;SDS011;2830;50.656;7.568;2024-01-11T10:32:12;23.23;;;14.00;;
5616;SDS011;2830;50.656;7.568;2024-01-11T10:34:39;26.70;;;13.23;;
5616;SDS011;2830;50.656;7.568;2024-01-11T10:37:08;25.10;;;13.57;;
5616;SDS011;2830;50.656;7.568;2024-01-11T10:39:36;22.50;;;13.73;;
5616;SDS011;2830;50.656;7.568;2024-01-11T10:42:05;29.50;;;15.60;;
5616;SDS011;2830;50.656;7.568;2024-01-11T10:44:34;29.77;;;14.63;;
5616;SDS011;2830;50.656;7.568;2024-01-11T10:47:03;29.30;;;15.03;;
5616;SDS011;2830;50.656;7.568;2024-01-11T10:49:34;25.93;;;15.07;;
5616;SDS011;2830;50.656;7.568;2024-01-11T10:52:05;27.57;;;16.60;;
5616;SDS011;2830;50.656;7.568;2024-01-11T10:54:34;28.50;;;16.27;;
5616;SDS011;2830;50.656;7.568;2024-01-11T10:57:03;29.90;;;17.63;;
5616;SDS011;2830;50.656;7.568;2024-01-11T10:59:32;30.03;;;17.60;;
5616;SDS011;2830;50.656;7.568;2024-01-11T11:02:03;26.23;;;15.70;;
5616;SDS011;2830;50.656;7.568;2024-01-11T11:04:33;27.13;;;15.80;;
5616;SDS011;2830;50.656;7.568;2024-01-11T11:07:02;29.80;;;17.70;;
5616;SDS011;2830;50.656;7.568;2024-01-11T11:09:30;30.47;;;18.17;;
5616;SDS011;2830;50.656;7.568;2024-01-11T11:11:59;28.23;;;17.30;;
5616;SDS011;2830;50.656;7.568;2024-01-11T11:14:27;26.07;;;16.63;;
5616;SDS011;2830;50.656;7.568;2024-01-11T11:16:54;22.90;;;16.40;;
5616;SDS011;2830;50.656;7.568;2024-01-11T11:19:22;26.63;;;16.73;;
5616;SDS011;2830;50.656;7.568;2024-01-11T11:21:49;31.70;;;18.93;;
5616;SDS011;2830;50.656;7.568;2024-01-11T11:24:17;33.50;;;19.17;;
5616;SDS011;2830;50.656;7.568;2024-01-11T11:26:45;27.67;;;16.67;;
5616;SDS011;2830;50.656;7.568;2024-01-11T11:29:12;26.90;;;17.30;;
5616;SDS011;2830;50.656;7.568;2024-01-11T11:31:44;27.37;;;16.90;;
5616;SDS011;2830;50.656;7.568;2024-01-11T11:34:13;26.27;;;17.60;;
5616;SDS011;2830;50.656;7.568;2024-01-11T11:36:41;31.60;;;18.70;;
5616;SDS011;2830;50.656;7.568;2024-01-11T11:39:10;30.90;;;18.80;;
5616;SDS011;2830;50.656;7.568;2024-01-11T11:41:41;29.53;;;18.73;;
5616;SDS011;2830;50.656;7.568;2024-01-11T11:44:11;30.97;;;19.23;;
5616;SDS011;2830;50.656;7.568;2024-01-11T11:46:42;36.87;;;22.73;;
5616;SDS011;2830;50.656;7.568;2024-01-11T11:49:11;26.53;;;18.30;;
5616;SDS011;2830;50.656;7.568;2024-01-11T11:51:40;29.70;;;19.47;;
5616;SDS011;2830;50.656;7.568;2024-01-11T11:54:08;28.17;;;16.70;;
5616;SDS011;2830;50.656;7.568;2024-01-11T11:56:36;28.60;;;18.40;;
5616;SDS011;2830;50.656;7.568;2024-01-11T11:59:03;31.20;;;17.37;;
5616;SDS011;2830;50.656;7.568;2024-01-11T12:01:31;29.37;;;17.40;;
5616;SDS011;2830;50.656;7.568;2024-01-11T12:03:59;32.77;;;16.97;;
5616;SDS011;2830;50.656;7.568;2024-01-11T12:06:26;29.63;;;19.77;;
5616;SDS011;2830;50.656;7.568;2024-01-11T12:08:54;31.00;;;18.17;;
5616;SDS011;2830;50.656;7.568;2024-01-11T12:11:23;31.27;;;18.50;;
5616;SDS011;2830;50.656;7.568;2024-01-11T12:13:51;26.63;;;17.40;;
5616;SDS011;2830;50.656;7.568;2024-01-11T12:16:19;34.07;;;18.63;;
5616;SDS011;2830;50.656;7.568;2024-01-11T12:18:48;29.43;;;19.97;;
5616;SDS011;2830;50.656;7.568;2024-01-11T12:21:18;29.93;;;19.70;;
5616;SDS011;2830;50.656;7.568;2024-01-11T12:23:46;28.50;;;17.63;;
5616;SDS011;2830;50.656;7.568;2024-01-11T12:26:15;27.40;;;17.00;;
5616;SDS011;2830;50.656;7.568;2024-01-11T12:28:48;28.90;;;20.20;;
5616;SDS011;2830;50.656;7.568;2024-01-11T12:31:16;30.50;;;19.20;;
5616;SDS011;2830;50.656;7.568;2024-01-11T12:33:43;29.40;;;16.00;;
5616;SDS011;2830;50.656;7.568;2024-01-11T12:36:10;38.40;;;16.97;;
5616;SDS011;2830;50.656;7.568;2024-01-11T12:38:38;28.77;;;16.33;;
5616;SDS011;2830;50.656;7.568;2024-01-11T12:41:17;26.00;;;16.87;;
5616;SDS011;2830;50.656;7.568;2024-01-11T12:43:45;28.53;;;16.37;;
5616;SDS011;2830;50.656;7.568;2024-01-11T12:46:12;29.23;;;16.07;;
5616;SDS011;2830;50.656;7.568;2024-01-11T12:48:39;24.97;;;16.13;;
5616;SDS011;2830;50.656;7.568;2024-01-11T12:51:06;25.80;;;16.50;;
5616;SDS011;2830;50.656;7.568;2024-01-11T12:53:45;32.90;;;16.93;;
5616;SDS011;2830;50.656;7.568;2024-01-11T12:56:15;28.30;;;16.27;;
5616;SDS011;2830;50.656;7.568;2024-01-11T12:58:42;32.87;;;17.90;;
5616;SDS011;2830;50.656;7.568;2024-01-11T13:01:09;28.77;;;17.10;;
5616;SDS011;2830;50.656;7.568;2024-01-11T13:03:39;30.38;;;18.83;;
5616;SDS011;2830;50.656;7.568;2024-01-11T13:06:09;29.67;;;18.10;;
5616;SDS011;2830;50.656;7.568;2024-01-11T13:08:38;33.28;;;18.83;;
5616;SDS011;2830;50.656;7.568;2024-01-11T13:11:08;29.13;;;19.42;;
5616;SDS011;2830;50.656;7.568;2024-01-11T13:13:39;31.92;;;18.42;;
5616;SDS011;2830;50.656;7.568;2024-01-11T13:16:06;28.33;;;16.33;;
5616;SDS011;2830;50.656;7.568;2024-01-11T13:18:37;31.38;;;19.48;;
5616;SDS011;2830;50.656;7.568;2024-01-11T13:21:04;37.05;;;20.58;;
5616;SDS011;2830;50.656;7.568;2024-01-11T13:23:33;32.08;;;19.73;;
5616;SDS011;2830;50.656;7.568;2024-01-11T13:26:00;34.85;;;19.08;;
5616;SDS011;2830;50.656;7.568;2024-01-11T13:28:28;41.88;;;20.42;;
5616;SDS011;2830;50.656;7.568;2024-01-11T13:30:55;30.75;;;18.77;;
5616;SDS011;2830;50.656;7.568;2024-01-11T13:33:23;34.58;;;19.40;;
5616;SDS011;2830;50.656;7.568;2024-01-11T13:35:50;28.80;;;18.02;;
5616;SDS011;2830;50.656;7.568;2024-01-11T13:38:18;24.95;;;15.75;;
5616;SDS011;2830;50.656;7.568;2024-01-11T13:40:49;34.70;;;18.27;;
5616;SDS011;2830;50.656;7.568;2024-01-11T13:43:16;24.75;;;14.93;;
5616;SDS011;2830;50.656;7.568;2024-01-11T13:45:43;32.25;;;17.75;;
5616;SDS011;2830;50.656;7.568;2024-01-11T13:48:11;28.33;;;16.90;;
5616;SDS011;2830;50.656;7.568;2024-01-11T13:50:38;30.10;;;16.88;;
5616;SDS011;2830;50.656;7.568;2024-01-11T13:53:06;26.95;;;16.50;;
5616;SDS011;2830;50.656;7.568;2024-01-11T13:55:33;26.98;;;15.85;;
5616;SDS011;2830;50.656;7.568;2024-01-11T13:58:06;35.25;;;16.65;;
5616;SDS011;2830;50.656;7.568;2024-01-11T14:00:34;30.77;;;16.77;;
5616;SDS011;2830;50.656;7.568;2024-01-11T14:03:02;40.83;;;17.05;;
5616;SDS011;2830;50.656;7.568;2024-01-11T14:05:32;27.52;;;17.02;;
5616;SDS011;2830;50.656;7.568;2024-01-11T14:07:59;30.38;;;17.65;;
5616;SDS011;2830;50.656;7.568;2024-01-11T14:10:27;30.83;;;17.45;;
5616;SDS011;2830;50.656;7.568;2024-01-11T14:12:54;28.85;;;16.33;;
5616;SDS011;2830;50.656;7.568;2024-01-11T14:15:22;33.97;;;18.70;;
5616;SDS011;2830;50.656;7.568;2024-01-11T14:17:49;27.85;;;16.15;;
5616;SDS011;2830;50.656;7.568;2024-01-11T14:20:17;32.35;;;19.48;;
5616;SDS011;2830;50.656;7.568;2024-01-11T14:22:44;33.45;;;19.50;;
5616;SDS011;2830;50.656;7.568;2024-01-11T14:25:19;26.05;;;15.73;;
5616;SDS011;2830;50.656;7.568;2024-01-11T14:27:47;31.38;;;17.27;;
5616;SDS011;2830;50.656;7.568;2024-01-11T14:30:14;25.80;;;16.50;;
5616;SDS011;2830;50.656;7.568;2024-01-11T14:32:42;30.55;;;17.40;;
5616;SDS011;2830;50.656;7.568;2024-01-11T14:35:09;32.50;;;18.10;;
5616;SDS011;2830;50.656;7.568;2024-01-11T14:37:37;32.38;;;17.02;;
5616;SDS011;2830;50.656;7.568;2024-01-11T14:40:08;34.30;;;17.85;;
5616;SDS011;2830;50.656;7.568;2024-01-11T14:42:39;31.63;;;18.50;;
5616;SDS011;2830;50.656;7.568;2024-01-11T14:45:06;35.85;;;19.38;;
5616;SDS011;2830;50.656;7.568;2024-01-11T14:47:34;29.90;;;17.35;;
5616;SDS011;2830;50.656;7.568;2024-01-11T14:50:01;33.42;;;16.90;;
5616;SDS011;2830;50.656;7.568;2024-01-11T14:52:30;33.70;;;18.10;;